Hovedside
METAR-TAF:

METAR-TAF

Lufthavner :

Longyearbyen, Norge

Svalbard lufthavn

breddegrad: 78-15N, lengdegrad: 015-28E, høyde over havet: 2 m

Gjeldene værobservasjon

Denne rapporten ble laget for 27 minutter siden, klokken 19:50 UTC
Vind 8 kt fra Sørøst
Temperatur -4°C
Luftfuktighet 58%
Trykk 1021 hPa
Sikt 10 km eller mer
Brutte skyer i en høyde av 3100 ft

METAR: ENSB 281950Z 14008KT 9999 BKN031 M04/M11 Q1021 RMK WIND 1400FT 10009KT

Tid: 22:17 (20:17 UTC)

Varsel

Varsel gyldig fra 28. klokken 18 UTC til 29. klokken 18 UTC
Vind 9 kt fra Øst-sørøst
Sikt 10 km eller mer
Få skyer i en høyde av 2000 ft
Spredte skyer i en høyde av 4000 ft
Midlertidig
fra 29. klokken 06 UTC til 29. klokken 18 UTC
Vind 12 kt fra Nord

TAF: ENSB 2818/2918 12009KT 9999 FEW020 SCT040 TEMPO 2906/2918 01012KT

Værobservasjoner og værvarsel for over 4000 flyplasser (METAR- og TAF-rapporter).

Tilgjengelige stasjoner er representert av de røde og gule prikkene på kartet.

Hold musepekeren over prikken for å se navnet på stasjonen.

Klikk så for å se værobservasjoner og -varsler.

For å forandre kartet kan du klikke på den grønne knappen med svart kryss for å zoome inn, på den grønne knappen med strek for å zoome ut, eller på de grønne pilene for å se tilstøtende kart.


METAR-TAF: